Terminal Aerodrome Forecast
Issued by NWS Charleston, WV

Home | Current Version | Previous Version | Text Only | Print | Product List | Glossary On
Versions: 1 2 3 4 5 6 7 8 9 10 11 12 13 14 15 16 17 18
000
FTUS41 KRLX 280800 AAA
TAFBKW
TAF AMD
KBKW 280813Z 2808/2906 25006G18KT 6SM -SHRA SCT015 OVC035
     FM281200 24009G19KT 5SM -SHRA BR BKN015 OVC030
     FM281500 23005KT 2SM -SHRA BR BKN006 OVC015
     FM282100 30007KT 2SM -RA BR OVC008=

USA.gov is the U.S. government's official web portal to all federal, state and local government web resources and services.